sensor_id;sensor_type;location;lat;lon;timestamp;P1;durP1;ratioP1;P2;durP2;ratioP2
39654;SDS011;25336;59.944;11.010;2023-11-19T00:00:11;12.90;;;7.82;;
39654;SDS011;25336;59.944;11.010;2023-11-19T00:02:38;14.00;;;8.35;;
39654;SDS011;25336;59.944;11.010;2023-11-19T00:05:04;13.75;;;8.57;;
39654;SDS011;25336;59.944;11.010;2023-11-19T00:07:31;17.45;;;8.85;;
39654;SDS011;25336;59.944;11.010;2023-11-19T00:09:57;8.48;;;6.70;;
39654;SDS011;25336;59.944;11.010;2023-11-19T00:12:23;13.20;;;8.38;;
39654;SDS011;25336;59.944;11.010;2023-11-19T00:14:49;13.25;;;8.38;;
39654;SDS011;25336;59.944;11.010;2023-11-19T00:17:15;16.60;;;8.88;;
39654;SDS011;25336;59.944;11.010;2023-11-19T00:19:41;11.55;;;6.72;;
39654;SDS011;25336;59.944;11.010;2023-11-19T00:22:07;9.10;;;6.60;;
39654;SDS011;25336;59.944;11.010;2023-11-19T00:24:32;8.45;;;5.55;;
39654;SDS011;25336;59.944;11.010;2023-11-19T00:26:58;8.80;;;6.20;;
39654;SDS011;25336;59.944;11.010;2023-11-19T00:29:24;8.55;;;6.13;;
39654;SDS011;25336;59.944;11.010;2023-11-19T00:31:50;6.38;;;5.28;;
39654;SDS011;25336;59.944;11.010;2023-11-19T00:34:15;7.68;;;5.93;;
39654;SDS011;25336;59.944;11.010;2023-11-19T00:36:41;7.93;;;5.72;;
39654;SDS011;25336;59.944;11.010;2023-11-19T00:39:07;10.45;;;6.25;;
39654;SDS011;25336;59.944;11.010;2023-11-19T00:41:32;6.97;;;5.72;;
39654;SDS011;25336;59.944;11.010;2023-11-19T00:43:58;9.07;;;6.78;;
39654;SDS011;25336;59.944;11.010;2023-11-19T00:46:24;10.30;;;7.13;;
39654;SDS011;25336;59.944;11.010;2023-11-19T00:48:50;8.70;;;6.32;;
39654;SDS011;25336;59.944;11.010;2023-11-19T00:51:16;11.13;;;7.10;;
39654;SDS011;25336;59.944;11.010;2023-11-19T00:53:41;11.57;;;7.47;;
39654;SDS011;25336;59.944;11.010;2023-11-19T00:56:07;9.88;;;7.35;;
39654;SDS011;25336;59.944;11.010;2023-11-19T00:58:33;9.32;;;6.75;;
39654;SDS011;25336;59.944;11.010;2023-11-19T01:00:58;8.35;;;6.10;;
39654;SDS011;25336;59.944;11.010;2023-11-19T01:03:24;7.78;;;6.63;;
39654;SDS011;25336;59.944;11.010;2023-11-19T01:05:50;9.70;;;7.13;;
39654;SDS011;25336;59.944;11.010;2023-11-19T01:08:17;9.85;;;5.78;;
39654;SDS011;25336;59.944;11.010;2023-11-19T01:10:44;9.68;;;7.00;;
39654;SDS011;25336;59.944;11.010;2023-11-19T01:13:09;12.27;;;7.75;;
39654;SDS011;25336;59.944;11.010;2023-11-19T01:15:35;10.93;;;7.78;;
39654;SDS011;25336;59.944;11.010;2023-11-19T01:18:01;9.43;;;7.60;;
39654;SDS011;25336;59.944;11.010;2023-11-19T01:20:30;10.88;;;7.25;;
39654;SDS011;25336;59.944;11.010;2023-11-19T01:22:56;10.95;;;7.05;;
39654;SDS011;25336;59.944;11.010;2023-11-19T01:25:21;9.85;;;7.03;;
39654;SDS011;25336;59.944;11.010;2023-11-19T01:27:47;9.85;;;7.60;;
39654;SDS011;25336;59.944;11.010;2023-11-19T01:30:13;8.95;;;6.20;;
39654;SDS011;25336;59.944;11.010;2023-11-19T01:32:39;8.20;;;6.10;;
39654;SDS011;25336;59.944;11.010;2023-11-19T01:35:05;9.57;;;6.88;;
39654;SDS011;25336;59.944;11.010;2023-11-19T01:37:31;8.82;;;6.63;;
39654;SDS011;25336;59.944;11.010;2023-11-19T01:39:57;9.45;;;6.75;;
39654;SDS011;25336;59.944;11.010;2023-11-19T01:42:23;9.40;;;6.45;;
39654;SDS011;25336;59.944;11.010;2023-11-19T01:44:58;7.40;;;5.70;;
39654;SDS011;25336;59.944;11.010;2023-11-19T01:47:27;10.73;;;6.18;;
39654;SDS011;25336;59.944;11.010;2023-11-19T01:49:55;9.82;;;6.53;;
39654;SDS011;25336;59.944;11.010;2023-11-19T01:52:22;13.65;;;6.88;;
39654;SDS011;25336;59.944;11.010;2023-11-19T01:54:49;8.93;;;6.38;;
39654;SDS011;25336;59.944;11.010;2023-11-19T01:57:15;9.85;;;6.78;;
39654;SDS011;25336;59.944;11.010;2023-11-19T01:59:42;7.65;;;6.10;;
39654;SDS011;25336;59.944;11.010;2023-11-19T02:02:08;6.40;;;5.43;;
39654;SDS011;25336;59.944;11.010;2023-11-19T02:04:34;7.18;;;5.78;;
39654;SDS011;25336;59.944;11.010;2023-11-19T02:07:00;9.55;;;6.25;;
39654;SDS011;25336;59.944;11.010;2023-11-19T02:09:25;7.97;;;4.55;;
39654;SDS011;25336;59.944;11.010;2023-11-19T02:11:52;5.55;;;4.30;;
39654;SDS011;25336;59.944;11.010;2023-11-19T02:14:19;8.48;;;5.50;;
39654;SDS011;25336;59.944;11.010;2023-11-19T02:16:50;7.90;;;5.05;;
39654;SDS011;25336;59.944;11.010;2023-11-19T02:19:19;5.43;;;4.90;;
39654;SDS011;25336;59.944;11.010;2023-11-19T02:21:45;6.88;;;4.95;;
39654;SDS011;25336;59.944;11.010;2023-11-19T02:24:11;5.65;;;4.75;;
39654;SDS011;25336;59.944;11.010;2023-11-19T02:26:40;5.95;;;4.80;;
39654;SDS011;25336;59.944;11.010;2023-11-19T02:29:19;5.40;;;4.15;;
39654;SDS011;25336;59.944;11.010;2023-11-19T02:31:45;5.70;;;4.63;;
39654;SDS011;25336;59.944;11.010;2023-11-19T02:34:11;6.38;;;4.93;;
39654;SDS011;25336;59.944;11.010;2023-11-19T02:36:38;6.35;;;4.65;;
39654;SDS011;25336;59.944;11.010;2023-11-19T02:39:06;6.10;;;4.47;;
39654;SDS011;25336;59.944;11.010;2023-11-19T02:41:36;8.45;;;4.63;;
39654;SDS011;25336;59.944;11.010;2023-11-19T02:44:05;6.97;;;5.07;;
39654;SDS011;25336;59.944;11.010;2023-11-19T02:46:34;5.30;;;4.60;;
39654;SDS011;25336;59.944;11.010;2023-11-19T02:49:00;5.05;;;4.55;;
39654;SDS011;25336;59.944;11.010;2023-11-19T02:51:25;6.50;;;5.25;;
39654;SDS011;25336;59.944;11.010;2023-11-19T02:53:52;10.10;;;6.15;;
39654;SDS011;25336;59.944;11.010;2023-11-19T02:56:18;8.00;;;5.35;;
39654;SDS011;25336;59.944;11.010;2023-11-19T02:58:54;10.30;;;5.80;;
39654;SDS011;25336;59.944;11.010;2023-11-19T03:01:23;7.30;;;5.43;;
39654;SDS011;25336;59.944;11.010;2023-11-19T03:03:54;8.02;;;5.97;;
39654;SDS011;25336;59.944;11.010;2023-11-19T03:06:22;7.03;;;4.18;;
39654;SDS011;25336;59.944;11.010;2023-11-19T03:08:47;7.38;;;4.78;;
39654;SDS011;25336;59.944;11.010;2023-11-19T03:11:13;9.45;;;5.47;;
39654;SDS011;25336;59.944;11.010;2023-11-19T03:13:39;8.02;;;5.57;;
39654;SDS011;25336;59.944;11.010;2023-11-19T03:16:06;6.55;;;5.25;;
39654;SDS011;25336;59.944;11.010;2023-11-19T03:18:32;6.18;;;4.72;;
39654;SDS011;25336;59.944;11.010;2023-11-19T03:20:58;6.68;;;5.20;;
39654;SDS011;25336;59.944;11.010;2023-11-19T03:23:24;12.02;;;6.13;;
39654;SDS011;25336;59.944;11.010;2023-11-19T03:25:52;5.15;;;4.57;;
39654;SDS011;25336;59.944;11.010;2023-11-19T03:28:18;5.25;;;4.38;;
39654;SDS011;25336;59.944;11.010;2023-11-19T03:30:44;7.00;;;5.30;;
39654;SDS011;25336;59.944;11.010;2023-11-19T03:33:10;9.57;;;5.47;;
39654;SDS011;25336;59.944;11.010;2023-11-19T03:35:35;7.75;;;6.10;;
39654;SDS011;25336;59.944;11.010;2023-11-19T03:38:01;9.05;;;5.28;;
39654;SDS011;25336;59.944;11.010;2023-11-19T03:40:27;11.82;;;5.90;;
39654;SDS011;25336;59.944;11.010;2023-11-19T03:42:55;8.52;;;6.03;;
39654;SDS011;25336;59.944;11.010;2023-11-19T03:45:22;9.05;;;4.95;;
39654;SDS011;25336;59.944;11.010;2023-11-19T03:47:48;9.55;;;6.05;;
39654;SDS011;25336;59.944;11.010;2023-11-19T03:50:15;7.70;;;4.85;;
39654;SDS011;25336;59.944;11.010;2023-11-19T03:52:41;8.90;;;5.53;;
39654;SDS011;25336;59.944;11.010;2023-11-19T03:55:07;9.55;;;5.53;;
39654;SDS011;25336;59.944;11.010;2023-11-19T03:57:34;8.35;;;5.05;;
39654;SDS011;25336;59.944;11.010;2023-11-19T04:00:00;13.07;;;5.93;;
39654;SDS011;25336;59.944;11.010;2023-11-19T04:04:57;8.27;;;4.68;;
39654;SDS011;25336;59.944;11.010;2023-11-19T04:07:23;6.40;;;4.70;;
39654;SDS011;25336;59.944;11.010;2023-11-19T04:09:49;12.65;;;4.65;;
39654;SDS011;25336;59.944;11.010;2023-11-19T04:12:14;9.23;;;5.00;;
39654;SDS011;25336;59.944;11.010;2023-11-19T04:14:40;12.20;;;5.18;;
39654;SDS011;25336;59.944;11.010;2023-11-19T04:17:06;10.95;;;6.28;;
39654;SDS011;25336;59.944;11.010;2023-11-19T04:19:31;10.18;;;5.78;;
39654;SDS011;25336;59.944;11.010;2023-11-19T04:21:57;11.73;;;5.43;;
39654;SDS011;25336;59.944;11.010;2023-11-19T04:24:23;8.25;;;5.28;;
39654;SDS011;25336;59.944;11.010;2023-11-19T04:26:49;10.18;;;5.22;;
39654;SDS011;25336;59.944;11.010;2023-11-19T04:29:15;7.82;;;5.03;;
39654;SDS011;25336;59.944;11.010;2023-11-19T04:31:42;8.77;;;5.55;;
39654;SDS011;25336;59.944;11.010;2023-11-19T04:34:09;6.47;;;5.75;;
39654;SDS011;25336;59.944;11.010;2023-11-19T04:36:36;6.63;;;4.95;;
39654;SDS011;25336;59.944;11.010;2023-11-19T04:39:03;6.22;;;4.25;;
39654;SDS011;25336;59.944;11.010;2023-11-19T04:41:35;8.15;;;5.18;;
39654;SDS011;25336;59.944;11.010;2023-11-19T04:44:01;6.45;;;5.30;;
39654;SDS011;25336;59.944;11.010;2023-11-19T04:46:27;10.90;;;4.82;;
39654;SDS011;25336;59.944;11.010;2023-11-19T04:48:53;5.82;;;4.00;;
39654;SDS011;25336;59.944;11.010;2023-11-19T04:51:18;6.40;;;4.22;;
39654;SDS011;25336;59.944;11.010;2023-11-19T04:53:45;7.40;;;3.95;;
39654;SDS011;25336;59.944;11.010;2023-11-19T04:56:11;9.55;;;5.07;;
39654;SDS011;25336;59.944;11.010;2023-11-19T04:58:38;8.10;;;4.70;;
39654;SDS011;25336;59.944;11.010;2023-11-19T05:01:04;4.55;;;4.05;;
39654;SDS011;25336;59.944;11.010;2023-11-19T05:03:30;10.95;;;4.75;;
39654;SDS011;25336;59.944;11.010;2023-11-19T05:05:56;6.50;;;4.78;;
39654;SDS011;25336;59.944;11.010;2023-11-19T05:08:22;7.10;;;4.50;;
39654;SDS011;25336;59.944;11.010;2023-11-19T05:10:48;6.72;;;4.97;;
39654;SDS011;25336;59.944;11.010;2023-11-19T05:13:14;6.30;;;4.47;;
39654;SDS011;25336;59.944;11.010;2023-11-19T05:15:40;13.05;;;6.55;;
39654;SDS011;25336;59.944;11.010;2023-11-19T05:18:06;10.18;;;4.93;;
39654;SDS011;25336;59.944;11.010;2023-11-19T05:20:32;6.55;;;4.32;;
39654;SDS011;25336;59.944;11.010;2023-11-19T05:22:58;9.15;;;5.30;;
39654;SDS011;25336;59.944;11.010;2023-11-19T05:25:25;7.25;;;5.38;;
39654;SDS011;25336;59.944;11.010;2023-11-19T05:27:52;6.63;;;5.13;;
39654;SDS011;25336;59.944;11.010;2023-11-19T05:30:18;6.63;;;4.70;;
39654;SDS011;25336;59.944;11.010;2023-11-19T05:32:43;10.32;;;5.00;;
39654;SDS011;25336;59.944;11.010;2023-11-19T05:35:09;9.30;;;4.95;;
39654;SDS011;25336;59.944;11.010;2023-11-19T05:37:36;7.22;;;4.72;;
39654;SDS011;25336;59.944;11.010;2023-11-19T05:40:01;7.70;;;4.78;;
39654;SDS011;25336;59.944;11.010;2023-11-19T05:42:29;6.72;;;4.63;;
39654;SDS011;25336;59.944;11.010;2023-11-19T05:44:55;6.28;;;4.30;;
39654;SDS011;25336;59.944;11.010;2023-11-19T05:47:21;8.95;;;5.40;;
39654;SDS011;25336;59.944;11.010;2023-11-19T05:49:46;7.03;;;5.65;;
39654;SDS011;25336;59.944;11.010;2023-11-19T05:52:12;6.60;;;4.60;;
39654;SDS011;25336;59.944;11.010;2023-11-19T05:54:38;8.80;;;5.25;;
39654;SDS011;25336;59.944;11.010;2023-11-19T05:57:04;8.40;;;4.93;;
39654;SDS011;25336;59.944;11.010;2023-11-19T05:59:30;7.47;;;5.20;;
39654;SDS011;25336;59.944;11.010;2023-11-19T06:01:58;7.68;;;4.90;;
39654;SDS011;25336;59.944;11.010;2023-11-19T06:04:23;6.63;;;4.68;;
39654;SDS011;25336;59.944;11.010;2023-11-19T06:06:49;9.75;;;5.53;;
39654;SDS011;25336;59.944;11.010;2023-11-19T06:09:15;8.13;;;5.00;;
39654;SDS011;25336;59.944;11.010;2023-11-19T06:11:43;11.07;;;6.03;;
39654;SDS011;25336;59.944;11.010;2023-11-19T06:14:09;7.78;;;5.65;;
39654;SDS011;25336;59.944;11.010;2023-11-19T06:16:36;8.48;;;6.00;;
39654;SDS011;25336;59.944;11.010;2023-11-19T06:19:02;9.07;;;4.85;;
39654;SDS011;25336;59.944;11.010;2023-11-19T06:21:27;9.15;;;5.63;;
39654;SDS011;25336;59.944;11.010;2023-11-19T06:23:54;6.32;;;4.45;;
39654;SDS011;25336;59.944;11.010;2023-11-19T06:26:20;7.93;;;5.13;;
39654;SDS011;25336;59.944;11.010;2023-11-19T06:28:47;6.13;;;4.93;;
39654;SDS011;25336;59.944;11.010;2023-11-19T06:31:13;7.78;;;5.40;;
39654;SDS011;25336;59.944;11.010;2023-11-19T06:33:41;6.82;;;5.07;;
39654;SDS011;25336;59.944;11.010;2023-11-19T06:36:07;7.75;;;5.10;;
39654;SDS011;25336;59.944;11.010;2023-11-19T06:38:34;8.20;;;5.65;;
39654;SDS011;25336;59.944;11.010;2023-11-19T06:41:00;6.18;;;5.07;;
39654;SDS011;25336;59.944;11.010;2023-11-19T06:43:26;6.45;;;4.93;;
39654;SDS011;25336;59.944;11.010;2023-11-19T06:45:53;7.53;;;5.28;;
39654;SDS011;25336;59.944;11.010;2023-11-19T06:48:19;7.25;;;5.38;;
39654;SDS011;25336;59.944;11.010;2023-11-19T06:50:45;7.45;;;5.88;;
39654;SDS011;25336;59.944;11.010;2023-11-19T06:53:11;7.68;;;5.68;;
39654;SDS011;25336;59.944;11.010;2023-11-19T06:55:36;6.05;;;4.93;;
39654;SDS011;25336;59.944;11.010;2023-11-19T06:58:02;6.13;;;4.70;;
39654;SDS011;25336;59.944;11.010;2023-11-19T07:00:28;5.93;;;4.93;;
39654;SDS011;25336;59.944;11.010;2023-11-19T07:02:54;8.13;;;5.70;;
39654;SDS011;25336;59.944;11.010;2023-11-19T07:05:20;8.35;;;5.88;;
39654;SDS011;25336;59.944;11.010;2023-11-19T07:07:46;11.63;;;6.82;;
39654;SDS011;25336;59.944;11.010;2023-11-19T07:10:12;8.85;;;6.18;;
39654;SDS011;25336;59.944;11.010;2023-11-19T07:12:38;7.35;;;5.53;;
39654;SDS011;25336;59.944;11.010;2023-11-19T07:15:04;6.13;;;4.47;;
39654;SDS011;25336;59.944;11.010;2023-11-19T07:17:30;9.50;;;5.07;;
39654;SDS011;25336;59.944;11.010;2023-11-19T07:19:56;5.13;;;4.63;;
39654;SDS011;25336;59.944;11.010;2023-11-19T07:22:25;5.20;;;3.92;;
39654;SDS011;25336;59.944;11.010;2023-11-19T07:24:51;9.07;;;4.35;;
39654;SDS011;25336;59.944;11.010;2023-11-19T07:27:18;4.82;;;4.05;;
39654;SDS011;25336;59.944;11.010;2023-11-19T07:29:44;7.32;;;4.80;;
39654;SDS011;25336;59.944;11.010;2023-11-19T07:32:10;5.25;;;4.15;;
39654;SDS011;25336;59.944;11.010;2023-11-19T07:34:36;3.70;;;3.05;;
39654;SDS011;25336;59.944;11.010;2023-11-19T07:37:03;5.20;;;3.70;;
39654;SDS011;25336;59.944;11.010;2023-11-19T07:39:29;7.82;;;4.97;;
39654;SDS011;25336;59.944;11.010;2023-11-19T07:41:55;9.75;;;5.43;;
39654;SDS011;25336;59.944;11.010;2023-11-19T07:44:21;10.82;;;6.20;;
39654;SDS011;25336;59.944;11.010;2023-11-19T07:46:47;19.90;;;9.77;;
39654;SDS011;25336;59.944;11.010;2023-11-19T07:49:13;13.55;;;6.75;;
39654;SDS011;25336;59.944;11.010;2023-11-19T07:51:39;13.60;;;8.27;;
39654;SDS011;25336;59.944;11.010;2023-11-19T07:54:05;8.63;;;6.07;;
39654;SDS011;25336;59.944;11.010;2023-11-19T07:56:32;7.10;;;4.40;;
39654;SDS011;25336;59.944;11.010;2023-11-19T07:59:00;6.70;;;4.70;;
39654;SDS011;25336;59.944;11.010;2023-11-19T08:01:29;7.80;;;4.97;;
39654;SDS011;25336;59.944;11.010;2023-11-19T08:03:55;5.88;;;4.15;;
39654;SDS011;25336;59.944;11.010;2023-11-19T08:06:21;6.88;;;4.28;;
39654;SDS011;25336;59.944;11.010;2023-11-19T08:08:47;9.35;;;6.30;;
39654;SDS011;25336;59.944;11.010;2023-11-19T08:11:13;8.20;;;4.88;;
39654;SDS011;25336;59.944;11.010;2023-11-19T08:13:39;7.13;;;5.03;;
39654;SDS011;25336;59.944;11.010;2023-11-19T08:16:05;6.95;;;4.75;;
39654;SDS011;25336;59.944;11.010;2023-11-19T08:18:31;7.53;;;4.68;;
39654;SDS011;25336;59.944;11.010;2023-11-19T08:20:57;8.85;;;5.65;;
39654;SDS011;25336;59.944;11.010;2023-11-19T08:23:24;8.30;;;4.88;;
39654;SDS011;25336;59.944;11.010;2023-11-19T08:25:50;8.57;;;6.03;;
39654;SDS011;25336;59.944;11.010;2023-11-19T08:28:17;7.63;;;5.00;;
39654;SDS011;25336;59.944;11.010;2023-11-19T08:30:43;6.22;;;4.88;;
39654;SDS011;25336;59.944;11.010;2023-11-19T08:33:09;8.75;;;6.28;;
39654;SDS011;25336;59.944;11.010;2023-11-19T08:35:35;8.15;;;5.68;;
39654;SDS011;25336;59.944;11.010;2023-11-19T08:38:01;9.73;;;5.60;;
39654;SDS011;25336;59.944;11.010;2023-11-19T08:40:27;10.27;;;6.53;;
39654;SDS011;25336;59.944;11.010;2023-11-19T08:42:53;9.95;;;6.75;;
39654;SDS011;25336;59.944;11.010;2023-11-19T08:45:19;10.27;;;6.93;;
39654;SDS011;25336;59.944;11.010;2023-11-19T08:47:44;10.55;;;6.88;;
39654;SDS011;25336;59.944;11.010;2023-11-19T08:50:10;12.90;;;8.93;;
39654;SDS011;25336;59.944;11.010;2023-11-19T08:52:37;9.60;;;6.65;;
39654;SDS011;25336;59.944;11.010;2023-11-19T08:55:02;9.07;;;6.28;;
39654;SDS011;25336;59.944;11.010;2023-11-19T08:57:31;11.38;;;6.85;;
39654;SDS011;25336;59.944;11.010;2023-11-19T08:59:58;8.95;;;6.13;;
39654;SDS011;25336;59.944;11.010;2023-11-19T09:02:24;9.25;;;7.10;;
39654;SDS011;25336;59.944;11.010;2023-11-19T09:04:50;12.60;;;7.35;;
39654;SDS011;25336;59.944;11.010;2023-11-19T09:07:16;11.30;;;7.55;;
39654;SDS011;25336;59.944;11.010;2023-11-19T09:09:42;11.55;;;8.15;;
39654;SDS011;25336;59.944;11.010;2023-11-19T09:12:08;13.60;;;8.70;;
39654;SDS011;25336;59.944;11.010;2023-11-19T09:14:33;15.88;;;10.00;;
39654;SDS011;25336;59.944;11.010;2023-11-19T09:16:59;19.23;;;10.48;;
39654;SDS011;25336;59.944;11.010;2023-11-19T09:19:25;12.00;;;8.65;;
39654;SDS011;25336;59.944;11.010;2023-11-19T09:21:54;17.00;;;10.18;;
39654;SDS011;25336;59.944;11.010;2023-11-19T09:24:20;14.20;;;9.00;;
39654;SDS011;25336;59.944;11.010;2023-11-19T09:26:45;13.20;;;8.52;;
39654;SDS011;25336;59.944;11.010;2023-11-19T09:29:11;14.20;;;8.40;;
39654;SDS011;25336;59.944;11.010;2023-11-19T09:31:39;14.52;;;9.43;;
39654;SDS011;25336;59.944;11.010;2023-11-19T09:34:05;12.20;;;8.25;;
39654;SDS011;25336;59.944;11.010;2023-11-19T09:36:31;16.73;;;10.07;;
39654;SDS011;25336;59.944;11.010;2023-11-19T09:38:57;17.15;;;11.32;;
39654;SDS011;25336;59.944;11.010;2023-11-19T09:41:25;21.13;;;12.13;;
39654;SDS011;25336;59.944;11.010;2023-11-19T09:43:53;14.90;;;10.02;;
39654;SDS011;25336;59.944;11.010;2023-11-19T09:46:18;17.35;;;10.05;;
39654;SDS011;25336;59.944;11.010;2023-11-19T09:48:46;14.95;;;10.10;;
39654;SDS011;25336;59.944;11.010;2023-11-19T09:51:13;14.70;;;8.88;;
39654;SDS011;25336;59.944;11.010;2023-11-19T09:53:39;19.48;;;10.63;;
39654;SDS011;25336;59.944;11.010;2023-11-19T09:56:05;14.30;;;8.85;;
39654;SDS011;25336;59.944;11.010;2023-11-19T09:58:33;13.02;;;8.98;;
39654;SDS011;25336;59.944;11.010;2023-11-19T10:00:59;13.88;;;9.63;;
39654;SDS011;25336;59.944;11.010;2023-11-19T10:03:34;13.38;;;8.73;;
39654;SDS011;25336;59.944;11.010;2023-11-19T10:06:03;15.20;;;9.90;;
39654;SDS011;25336;59.944;11.010;2023-11-19T10:08:31;18.92;;;10.80;;
39654;SDS011;25336;59.944;11.010;2023-11-19T10:10:58;18.13;;;10.50;;
39654;SDS011;25336;59.944;11.010;2023-11-19T10:13:30;19.00;;;10.82;;
39654;SDS011;25336;59.944;11.010;2023-11-19T10:15:56;14.35;;;9.02;;
39654;SDS011;25336;59.944;11.010;2023-11-19T10:18:27;20.42;;;10.68;;
39654;SDS011;25336;59.944;11.010;2023-11-19T10:20:53;16.27;;;10.32;;
39654;SDS011;25336;59.944;11.010;2023-11-19T10:23:20;15.88;;;10.02;;
39654;SDS011;25336;59.944;11.010;2023-11-19T10:25:46;18.23;;;10.57;;
39654;SDS011;25336;59.944;11.010;2023-11-19T10:28:12;14.73;;;8.55;;
39654;SDS011;25336;59.944;11.010;2023-11-19T10:30:41;20.00;;;10.70;;
39654;SDS011;25336;59.944;11.010;2023-11-19T10:33:11;16.15;;;9.80;;
39654;SDS011;25336;59.944;11.010;2023-11-19T10:35:52;12.32;;;7.93;;
39654;SDS011;25336;59.944;11.010;2023-11-19T10:38:27;17.23;;;9.27;;
39654;SDS011;25336;59.944;11.010;2023-11-19T10:40:53;16.48;;;8.68;;
39654;SDS011;25336;59.944;11.010;2023-11-19T10:43:20;12.50;;;8.85;;
39654;SDS011;25336;59.944;11.010;2023-11-19T10:45:48;30.77;;;20.38;;
39654;SDS011;25336;59.944;11.010;2023-11-19T10:48:14;16.77;;;11.13;;
39654;SDS011;25336;59.944;11.010;2023-11-19T10:50:40;13.82;;;8.55;;
39654;SDS011;25336;59.944;11.010;2023-11-19T10:53:08;15.07;;;8.57;;
39654;SDS011;25336;59.944;11.010;2023-11-19T10:55:38;11.85;;;8.30;;
39654;SDS011;25336;59.944;11.010;2023-11-19T10:58:08;13.65;;;9.23;;
39654;SDS011;25336;59.944;11.010;2023-11-19T11:00:44;14.50;;;8.50;;
39654;SDS011;25336;59.944;11.010;2023-11-19T11:03:19;16.85;;;9.23;;
39654;SDS011;25336;59.944;11.010;2023-11-19T11:05:49;14.95;;;10.32;;
39654;SDS011;25336;59.944;11.010;2023-11-19T11:08:16;11.77;;;9.80;;
39654;SDS011;25336;59.944;11.010;2023-11-19T11:10:43;28.83;;;17.63;;
39654;SDS011;25336;59.944;11.010;2023-11-19T11:13:20;14.57;;;9.88;;
39654;SDS011;25336;59.944;11.010;2023-11-19T11:15:49;14.30;;;8.57;;
39654;SDS011;25336;59.944;11.010;2023-11-19T11:18:16;20.50;;;11.70;;
39654;SDS011;25336;59.944;11.010;2023-11-19T11:20:46;18.58;;;9.50;;
39654;SDS011;25336;59.944;11.010;2023-11-19T11:29:01;19.33;;;11.35;;
39654;SDS011;25336;59.944;11.010;2023-11-19T11:39:49;13.77;;;9.68;;
39654;SDS011;25336;59.944;11.010;2023-11-19T11:45:06;20.48;;;10.32;;
39654;SDS011;25336;59.944;11.010;2023-11-19T11:50:11;13.32;;;8.52;;
39654;SDS011;25336;59.944;11.010;2023-11-19T11:53:21;12.23;;;7.83;;
39654;SDS011;25336;59.944;11.010;2023-11-19T11:55:52;14.88;;;8.77;;
39654;SDS011;25336;59.944;11.010;2023-11-19T11:58:30;12.25;;;8.60;;
39654;SDS011;25336;59.944;11.010;2023-11-19T12:00:57;13.90;;;9.73;;
39654;SDS011;25336;59.944;11.010;2023-11-19T12:03:26;20.50;;;10.77;;
39654;SDS011;25336;59.944;11.010;2023-11-19T12:05:53;14.50;;;8.95;;
39654;SDS011;25336;59.944;11.010;2023-11-19T12:08:19;18.02;;;8.60;;
39654;SDS011;25336;59.944;11.010;2023-11-19T12:10:50;15.63;;;9.63;;
39654;SDS011;25336;59.944;11.010;2023-11-19T12:13:17;12.35;;;8.18;;
39654;SDS011;25336;59.944;11.010;2023-11-19T12:18:26;11.98;;;8.07;;
39654;SDS011;25336;59.944;11.010;2023-11-19T12:20:53;14.68;;;9.45;;
39654;SDS011;25336;59.944;11.010;2023-11-19T12:23:20;17.80;;;10.82;;
39654;SDS011;25336;59.944;11.010;2023-11-19T12:25:46;17.40;;;10.88;;
39654;SDS011;25336;59.944;11.010;2023-11-19T12:28:13;19.48;;;10.02;;
39654;SDS011;25336;59.944;11.010;2023-11-19T12:30:39;16.88;;;10.65;;
39654;SDS011;25336;59.944;11.010;2023-11-19T12:33:09;16.65;;;10.48;;
39654;SDS011;25336;59.944;11.010;2023-11-19T12:35:44;21.52;;;12.18;;
39654;SDS011;25336;59.944;11.010;2023-11-19T12:38:21;18.40;;;11.10;;
39654;SDS011;25336;59.944;11.010;2023-11-19T12:40:48;25.48;;;11.98;;
39654;SDS011;25336;59.944;11.010;2023-11-19T12:43:28;21.73;;;11.38;;
39654;SDS011;25336;59.944;11.010;2023-11-19T12:45:54;20.80;;;12.05;;
39654;SDS011;25336;59.944;11.010;2023-11-19T12:48:20;22.20;;;12.00;;
39654;SDS011;25336;59.944;11.010;2023-11-19T12:50:55;14.43;;;9.85;;
39654;SDS011;25336;59.944;11.010;2023-11-19T12:53:24;15.00;;;9.43;;
39654;SDS011;25336;59.944;11.010;2023-11-19T12:55:51;15.20;;;9.07;;
39654;SDS011;25336;59.944;11.010;2023-11-19T12:58:33;11.52;;;8.45;;
39654;SDS011;25336;59.944;11.010;2023-11-19T13:01:05;17.83;;;7.57;;
39654;SDS011;25336;59.944;11.010;2023-11-19T13:03:33;12.45;;;8.05;;
39654;SDS011;25336;59.944;11.010;2023-11-19T13:11:09;11.02;;;7.10;;
39654;SDS011;25336;59.944;11.010;2023-11-19T13:13:55;11.77;;;7.63;;
39654;SDS011;25336;59.944;11.010;2023-11-19T13:16:22;11.65;;;8.38;;
39654;SDS011;25336;59.944;11.010;2023-11-19T13:18:48;10.70;;;7.32;;
39654;SDS011;25336;59.944;11.010;2023-11-19T13:21:14;12.40;;;6.68;;
39654;SDS011;25336;59.944;11.010;2023-11-19T13:23:40;8.73;;;5.82;;
39654;SDS011;25336;59.944;11.010;2023-11-19T13:26:05;11.85;;;7.30;;
39654;SDS011;25336;59.944;11.010;2023-11-19T13:28:31;11.25;;;7.55;;
39654;SDS011;25336;59.944;11.010;2023-11-19T13:30:57;11.20;;;6.85;;
39654;SDS011;25336;59.944;11.010;2023-11-19T13:33:23;14.02;;;7.43;;
39654;SDS011;25336;59.944;11.010;2023-11-19T13:35:49;12.30;;;6.97;;
39654;SDS011;25336;59.944;11.010;2023-11-19T13:38:14;9.93;;;6.95;;
39654;SDS011;25336;59.944;11.010;2023-11-19T13:40:40;9.35;;;6.70;;
39654;SDS011;25336;59.944;11.010;2023-11-19T13:43:06;10.20;;;7.00;;
39654;SDS011;25336;59.944;11.010;2023-11-19T13:45:32;13.32;;;8.82;;
39654;SDS011;25336;59.944;11.010;2023-11-19T13:47:58;11.02;;;7.68;;
39654;SDS011;25336;59.944;11.010;2023-11-19T13:50:23;13.13;;;7.28;;
39654;SDS011;25336;59.944;11.010;2023-11-19T13:52:49;12.98;;;8.57;;
39654;SDS011;25336;59.944;11.010;2023-11-19T13:55:15;10.02;;;7.15;;
39654;SDS011;25336;59.944;11.010;2023-11-19T13:57:41;15.15;;;7.57;;
39654;SDS011;25336;59.944;11.010;2023-11-19T14:00:08;10.15;;;7.03;;
39654;SDS011;25336;59.944;11.010;2023-11-19T14:02:40;12.10;;;7.90;;
39654;SDS011;25336;59.944;11.010;2023-11-19T14:05:06;12.65;;;8.18;;
39654;SDS011;25336;59.944;11.010;2023-11-19T14:07:33;10.52;;;7.75;;
39654;SDS011;25336;59.944;11.010;2023-11-19T14:09:58;15.32;;;7.13;;
39654;SDS011;25336;59.944;11.010;2023-11-19T14:12:24;17.95;;;9.93;;
39654;SDS011;25336;59.944;11.010;2023-11-19T14:14:50;16.70;;;10.70;;
39654;SDS011;25336;59.944;11.010;2023-11-19T14:17:16;13.93;;;10.15;;
39654;SDS011;25336;59.944;11.010;2023-11-19T14:19:42;18.17;;;13.30;;
39654;SDS011;25336;59.944;11.010;2023-11-19T14:22:08;18.35;;;9.07;;
39654;SDS011;25336;59.944;11.010;2023-11-19T14:24:33;14.55;;;7.65;;
39654;SDS011;25336;59.944;11.010;2023-11-19T14:27:00;14.88;;;8.25;;
39654;SDS011;25336;59.944;11.010;2023-11-19T14:29:26;10.68;;;7.00;;
39654;SDS011;25336;59.944;11.010;2023-11-19T14:31:53;11.02;;;6.47;;
39654;SDS011;25336;59.944;11.010;2023-11-19T14:34:22;10.35;;;7.22;;
39654;SDS011;25336;59.944;11.010;2023-11-19T14:36:48;15.80;;;7.78;;
39654;SDS011;25336;59.944;11.010;2023-11-19T14:39:14;11.77;;;7.63;;
39654;SDS011;25336;59.944;11.010;2023-11-19T14:41:40;15.27;;;9.85;;
39654;SDS011;25336;59.944;11.010;2023-11-19T14:44:07;17.35;;;11.38;;
39654;SDS011;25336;59.944;11.010;2023-11-19T14:46:34;20.88;;;11.15;;
39654;SDS011;25336;59.944;11.010;2023-11-19T14:49:00;13.27;;;9.32;;
39654;SDS011;25336;59.944;11.010;2023-11-19T14:51:26;14.18;;;9.15;;
39654;SDS011;25336;59.944;11.010;2023-11-19T14:53:52;10.73;;;8.02;;